createdAt,value
2019-05-01T00:00:29.675Z,98323.64
2019-05-01T00:03:30.566Z,98322.22
2019-05-01T00:06:00.734Z,98327.58
2019-05-01T00:08:30.471Z,98325.34
2019-05-01T00:11:00.247Z,98323.64
2019-05-01T00:13:30.106Z,98323.93
2019-05-01T00:16:00.011Z,98321.80
2019-05-01T00:18:30.214Z,98332.52
2019-05-01T00:21:00.047Z,98332.00
2019-05-01T00:23:29.767Z,98332.86
2019-05-01T00:25:59.437Z,98332.03
2019-05-01T00:28:29.254Z,98338.58
2019-05-01T00:30:58.964Z,98335.05
2019-05-01T00:33:29.174Z,98334.84
2019-05-01T00:35:58.985Z,98336.69
2019-05-01T00:38:30.300Z,98333.67
2019-05-01T00:41:00.258Z,98330.39
2019-05-01T00:43:29.940Z,98323.12
2019-05-01T00:46:00.050Z,98333.23
2019-05-01T00:48:29.781Z,98329.95
2019-05-01T00:50:59.911Z,98325.70
2019-05-01T00:53:29.874Z,98323.14
2019-05-01T00:56:16.721Z,98320.33
2019-05-01T00:59:06.909Z,98309.37
2019-05-01T01:01:54.398Z,98313.78
2019-05-01T01:04:24.332Z,98313.94
2019-05-01T01:06:54.751Z,98317.25
2019-05-01T01:09:25.004Z,98319.77
2019-05-01T01:11:54.773Z,98315.14
2019-05-01T01:14:24.488Z,98327.05
2019-05-01T01:16:54.602Z,98319.19
2019-05-01T01:19:24.267Z,98323.58
2019-05-01T01:21:54.337Z,98319.89
2019-05-01T01:24:24.102Z,98263.62
2019-05-01T01:26:54.340Z,98320.81
2019-05-01T01:29:24.103Z,98315.95
2019-05-01T01:31:53.829Z,98319.21
2019-05-01T01:34:23.640Z,98319.13
2019-05-01T01:36:53.383Z,98310.38
2019-05-01T01:39:23.092Z,98313.45
2019-05-01T01:41:53.876Z,98308.34
2019-05-01T01:44:41.862Z,98305.39
2019-05-01T01:47:11.804Z,98305.91
2019-05-01T01:49:41.813Z,98304.66
2019-05-01T01:52:12.157Z,98304.79
2019-05-01T01:54:42.069Z,98307.16
2019-05-01T01:57:11.963Z,98310.59
2019-05-01T01:59:41.841Z,98303.84
2019-05-01T02:02:27.756Z,98302.52
2019-05-01T02:05:09.990Z,98298.11
2019-05-01T02:07:40.305Z,98299.96
2019-05-01T02:10:10.464Z,98294.92
2019-05-01T02:12:41.462Z,98290.22
2019-05-01T02:15:11.282Z,98294.72
2019-05-01T02:17:41.107Z,98290.62
2019-05-01T02:20:11.204Z,98282.58
2019-05-01T02:22:41.190Z,98281.88
2019-05-01T02:25:12.672Z,98286.87
2019-05-01T02:27:48.540Z,98280.30
2019-05-01T02:30:19.931Z,98284.58
2019-05-01T02:32:50.211Z,98285.97
2019-05-01T02:35:20.265Z,98278.23
2019-05-01T02:37:51.034Z,98275.30
2019-05-01T02:41:03.516Z,98285.42
2019-05-01T02:43:36.524Z,98278.68
2019-05-01T02:46:07.488Z,98274.55
2019-05-01T02:48:39.094Z,98282.66
2019-05-01T02:51:09.392Z,98285.44
2019-05-01T02:53:42.324Z,98279.86
2019-05-01T02:56:29.639Z,98280.36
2019-05-01T02:59:00.079Z,98271.36
2019-05-01T03:01:45.413Z,98280.93
2019-05-01T03:04:02.039Z,98275.08
2019-05-01T03:06:34.551Z,98274.46
2019-05-01T03:09:08.171Z,98275.61
2019-05-01T03:11:40.456Z,98273.55
2019-05-01T03:14:15.903Z,98275.81
2019-05-01T03:16:47.006Z,98278.50
2019-05-01T03:19:25.411Z,98282.22
2019-05-01T03:22:04.973Z,98287.86
2019-05-01T03:24:35.026Z,98289.58
2019-05-01T03:27:05.190Z,98286.90
2019-05-01T03:29:35.396Z,98289.13
2019-05-01T03:32:16.659Z,98290.81
2019-05-01T03:34:37.305Z,98295.14
2019-05-01T03:37:07.604Z,98296.58
2019-05-01T03:39:38.540Z,98302.22
2019-05-01T03:42:08.617Z,98299.58
2019-05-01T03:44:38.689Z,98305.16
2019-05-01T03:47:08.743Z,98306.17
2019-05-01T03:49:39.006Z,98300.29
2019-05-01T03:52:08.742Z,98307.16
2019-05-01T03:54:39.143Z,98307.34
2019-05-01T03:57:12.632Z,98306.52
2019-05-01T03:59:41.069Z,98305.25
2019-05-01T04:02:45.857Z,98301.80
2019-05-01T04:05:16.707Z,98299.36
2019-05-01T04:07:47.662Z,98298.06
2019-05-01T04:10:17.339Z,98298.59
2019-05-01T04:12:47.102Z,98295.14
2019-05-01T04:15:17.167Z,98296.05
2019-05-01T04:17:52.385Z,98299.95
2019-05-01T04:20:22.277Z,98294.37
2019-05-01T04:22:52.200Z,98290.50
2019-05-01T04:25:22.872Z,98299.94
2019-05-01T04:27:58.462Z,98296.55
2019-05-01T04:30:44.215Z,98307.55
2019-05-01T04:33:15.528Z,98308.80
2019-05-01T04:36:08.842Z,98309.73
2019-05-01T04:38:38.763Z,98305.80
2019-05-01T04:41:09.272Z,98302.50
2019-05-01T04:43:39.721Z,98309.00
2019-05-01T04:46:09.860Z,98314.12
2019-05-01T04:48:39.937Z,98320.34
2019-05-01T04:51:10.021Z,98307.55
2019-05-01T04:53:40.035Z,98313.59
2019-05-01T04:56:10.024Z,98315.88
2019-05-01T04:58:40.000Z,98314.93
2019-05-01T05:01:09.868Z,98310.23
2019-05-01T05:03:55.093Z,98314.14
2019-05-01T05:06:24.977Z,98307.83
2019-05-01T05:08:55.212Z,98308.81
2019-05-01T05:11:27.796Z,98308.36
2019-05-01T05:14:17.986Z,98307.02
2019-05-01T05:16:52.147Z,98311.59
2019-05-01T05:19:22.054Z,98305.42
2019-05-01T05:21:51.930Z,98301.95
2019-05-01T05:24:22.049Z,98303.81
2019-05-01T05:26:52.255Z,98311.75
2019-05-01T05:29:23.786Z,98310.91
2019-05-01T05:31:54.850Z,98310.44
2019-05-01T05:34:27.051Z,98311.51
2019-05-01T05:37:00.365Z,98306.02
2019-05-01T05:39:36.560Z,98301.12
2019-05-01T05:42:06.778Z,98303.84
2019-05-01T05:44:36.631Z,98309.79
2019-05-01T05:47:06.517Z,98313.25
2019-05-01T05:49:36.601Z,98309.20
2019-05-01T05:52:16.415Z,98313.69
2019-05-01T05:55:11.107Z,98313.86
2019-05-01T05:58:17.745Z,98313.45
2019-05-01T06:01:08.903Z,98301.84
2019-05-01T06:04:11.623Z,98301.42
2019-05-01T06:07:03.756Z,98306.31
2019-05-01T06:09:44.633Z,98302.59
2019-05-01T06:12:46.643Z,98306.16
2019-05-01T06:15:30.966Z,98255.39
2019-05-01T06:18:15.485Z,98305.41
2019-05-01T06:21:02.360Z,98307.27
2019-05-01T06:23:38.890Z,98306.23
2019-05-01T06:26:37.449Z,98312.25
2019-05-01T06:29:05.068Z,98305.75
2019-05-01T06:31:36.744Z,98311.53
2019-05-01T06:34:06.546Z,98310.63
2019-05-01T06:36:36.887Z,98305.84
2019-05-01T06:39:11.953Z,98310.25
2019-05-01T06:41:44.356Z,98306.61
2019-05-01T06:44:24.442Z,98309.11
2019-05-01T06:47:07.629Z,98306.53
2019-05-01T06:50:01.135Z,98305.99
2019-05-01T06:52:30.733Z,98302.26
2019-05-01T06:55:01.093Z,98300.32
2019-05-01T06:57:31.512Z,98305.44
2019-05-01T07:00:03.221Z,98297.75
2019-05-01T07:02:34.983Z,98299.72
2019-05-01T07:05:08.961Z,98299.23
2019-05-01T07:07:37.060Z,98300.38
2019-05-01T07:10:06.847Z,98303.38
2019-05-01T07:12:37.476Z,98296.47
2019-05-01T07:15:09.050Z,98294.99
2019-05-01T07:17:39.213Z,98296.08
2019-05-01T07:20:47.434Z,98296.98
2019-05-01T07:23:19.001Z,98295.89
2019-05-01T07:25:49.282Z,98292.91
2019-05-01T07:28:19.031Z,98294.06
2019-05-01T07:30:54.933Z,98301.05
2019-05-01T07:33:24.128Z,98306.05
2019-05-01T07:35:54.186Z,98312.56
2019-05-01T07:38:23.957Z,98298.76
2019-05-01T07:40:53.939Z,98300.29
2019-05-01T07:43:34.000Z,98308.57
2019-05-01T07:46:28.929Z,98297.20
2019-05-01T07:48:59.390Z,98296.67
2019-05-01T07:51:29.846Z,98301.66
2019-05-01T07:54:04.017Z,98299.81
2019-05-01T07:56:31.973Z,98302.06
2019-05-01T07:59:01.749Z,98298.11
2019-05-01T08:01:54.536Z,98293.60
2019-05-01T08:04:35.113Z,98298.59
2019-05-01T08:06:57.111Z,98287.82
2019-05-01T08:09:25.197Z,98283.96
2019-05-01T08:11:54.907Z,98280.17
2019-05-01T08:14:24.640Z,98280.17
2019-05-01T08:16:54.280Z,98271.02
2019-05-01T08:19:34.742Z,98273.11
2019-05-01T08:22:09.291Z,98274.31
2019-05-01T08:24:38.993Z,98275.11
2019-05-01T08:27:15.646Z,98280.78
2019-05-01T08:30:07.764Z,98267.86
2019-05-01T08:32:54.782Z,98275.85
2019-05-01T08:35:25.632Z,98238.73
2019-05-01T08:37:58.324Z,98273.59
2019-05-01T08:40:26.704Z,98274.39
2019-05-01T08:42:56.570Z,98269.09
2019-05-01T08:45:44.144Z,98258.30
2019-05-01T08:48:35.751Z,98256.23
2019-05-01T08:51:03.453Z,98255.36
2019-05-01T08:53:33.170Z,98256.84
2019-05-01T08:56:02.959Z,98257.59
2019-05-01T08:58:32.866Z,98248.41
2019-05-01T09:01:04.422Z,98247.88
2019-05-01T09:03:34.212Z,98237.38
2019-05-01T09:06:03.821Z,98235.29
2019-05-01T09:08:33.477Z,98242.00
2019-05-01T09:11:03.213Z,98237.59
2019-05-01T09:13:32.819Z,98234.26
2019-05-01T09:16:02.536Z,98229.36
2019-05-01T09:18:32.172Z,98234.41
2019-05-01T09:21:01.869Z,98228.34
2019-05-01T09:23:34.274Z,98217.66
2019-05-01T09:26:20.574Z,98217.86
2019-05-01T09:28:56.062Z,98211.15
2019-05-01T09:31:27.411Z,98217.17
2019-05-01T09:33:57.141Z,98204.94
2019-05-01T09:36:26.955Z,98208.20
2019-05-01T09:38:56.603Z,98205.93
2019-05-01T09:41:37.670Z,98210.09
2019-05-01T09:43:57.680Z,98206.90
2019-05-01T09:46:27.769Z,98194.23
2019-05-01T09:48:57.461Z,98195.05
2019-05-01T09:51:58.234Z,98197.55
2019-05-01T09:54:35.726Z,98190.71
2019-05-01T09:57:05.485Z,98185.23
2019-05-01T09:59:35.153Z,98178.14
2019-05-01T10:02:07.785Z,98176.44
2019-05-01T10:04:36.379Z,98169.64
2019-05-01T10:07:07.357Z,98176.77
2019-05-01T10:09:37.624Z,98175.97
2019-05-01T10:12:11.639Z,98160.28
2019-05-01T10:14:38.698Z,98164.66
2019-05-01T10:17:08.427Z,98120.72
2019-05-01T10:19:38.193Z,98157.05
2019-05-01T10:22:07.980Z,98157.23
2019-05-01T10:24:39.300Z,98153.47
2019-05-01T10:27:11.951Z,98155.83
2019-05-01T10:30:01.577Z,98163.63
2019-05-01T10:32:36.711Z,98162.11
2019-05-01T10:35:21.167Z,98156.45
2019-05-01T10:37:50.875Z,98153.73
2019-05-01T10:40:22.310Z,98148.92
2019-05-01T10:42:52.243Z,98149.31
2019-05-01T10:45:21.868Z,98157.91
2019-05-01T10:47:51.595Z,98148.56
2019-05-01T10:50:21.283Z,98147.47
2019-05-01T10:52:51.477Z,98154.85
2019-05-01T10:55:21.270Z,98159.27
2019-05-01T10:57:51.022Z,98162.00
2019-05-01T11:00:20.936Z,98153.48
2019-05-01T11:02:50.760Z,98158.45
2019-05-01T11:05:20.389Z,98165.53
2019-05-01T11:07:50.100Z,98155.70
2019-05-01T11:10:21.275Z,98150.77
2019-05-01T11:12:50.890Z,98148.58
2019-05-01T11:15:20.887Z,98142.81
2019-05-01T11:17:50.638Z,98146.35
2019-05-01T11:20:20.375Z,98136.75
2019-05-01T11:22:50.147Z,98142.97
2019-05-01T11:25:20.619Z,98142.36
2019-05-01T11:27:50.592Z,98138.34
2019-05-01T11:30:20.490Z,98128.41
2019-05-01T11:32:56.592Z,98122.29
2019-05-01T11:35:48.209Z,98123.30
2019-05-01T11:38:40.095Z,98088.63
2019-05-01T11:41:18.451Z,98123.73
2019-05-01T11:43:48.150Z,98114.79
2019-05-01T11:46:17.949Z,98113.67
2019-05-01T11:48:47.981Z,98108.98
2019-05-01T11:51:17.822Z,98107.14
2019-05-01T11:53:47.467Z,98108.20
2019-05-01T11:56:17.189Z,98100.47
2019-05-01T11:58:47.019Z,98107.43
2019-05-01T12:01:18.300Z,98092.23
2019-05-01T12:03:48.083Z,98092.16
2019-05-01T12:06:23.121Z,98094.48
2019-05-01T12:08:49.283Z,98088.70
2019-05-01T12:11:21.004Z,98086.08
2019-05-01T12:13:50.908Z,98080.53
2019-05-01T12:16:38.086Z,98081.02
2019-05-01T12:19:07.849Z,98075.78
2019-05-01T12:21:37.599Z,98067.78
2019-05-01T12:24:07.540Z,98064.22
2019-05-01T12:26:37.201Z,98058.10
2019-05-01T12:29:35.818Z,98058.52
2019-05-01T12:32:52.334Z,98061.03
2019-05-01T12:35:22.081Z,98055.95
2019-05-01T12:38:32.869Z,98050.91
2019-05-01T12:41:26.380Z,98037.88
2019-05-01T12:43:56.020Z,97994.70
2019-05-01T12:47:00.097Z,98035.94
2019-05-01T12:49:30.118Z,98029.95
2019-05-01T12:52:10.353Z,98037.02
2019-05-01T12:54:44.628Z,98034.35
2019-05-01T12:57:14.607Z,98023.41
2019-05-01T12:59:44.541Z,98023.41
2019-05-01T13:02:14.194Z,98017.49
2019-05-01T13:04:43.980Z,98011.75
2019-05-01T13:07:14.049Z,98011.75
2019-05-01T13:09:43.732Z,98021.78
2019-05-01T13:12:13.437Z,98017.82
2019-05-01T13:14:43.224Z,98017.34
2019-05-01T13:17:12.901Z,98011.59
2019-05-01T13:19:42.537Z,98012.91
2019-05-01T13:22:12.150Z,98010.48
2019-05-01T13:24:51.143Z,98013.91
2019-05-01T13:27:26.835Z,98016.42
2019-05-01T13:30:15.478Z,98011.84
2019-05-01T13:32:54.727Z,98011.84
2019-05-01T13:35:24.818Z,98014.77
2019-05-01T13:37:54.434Z,98004.17
2019-05-01T13:40:24.197Z,97995.44
2019-05-01T13:42:53.864Z,97995.39
2019-05-01T13:45:23.736Z,97995.39
2019-05-01T13:47:54.575Z,98003.61
2019-05-01T13:50:24.705Z,98001.59
2019-05-01T13:52:54.530Z,98001.59
2019-05-01T13:55:25.046Z,98001.58
2019-05-01T13:57:54.851Z,97995.95
2019-05-01T14:00:27.252Z,97994.19
2019-05-01T14:02:56.922Z,97992.27
2019-05-01T14:05:26.598Z,97993.06
2019-05-01T14:07:56.380Z,97992.70
2019-05-01T14:10:26.126Z,97998.87
2019-05-01T14:12:56.066Z,97998.87
2019-05-01T14:15:26.850Z,98001.12
2019-05-01T14:17:57.017Z,97999.00
2019-05-01T14:20:51.579Z,97999.72
2019-05-01T14:23:34.093Z,97995.89
2019-05-01T14:26:04.109Z,97996.07
2019-05-01T14:28:35.784Z,98000.21
2019-05-01T14:31:06.190Z,97995.03
2019-05-01T14:33:36.205Z,97994.58
2019-05-01T14:36:06.228Z,97998.11
2019-05-01T14:38:36.001Z,98000.98
2019-05-01T14:41:05.884Z,98000.95
2019-05-01T14:43:37.905Z,97994.25
2019-05-01T14:46:07.669Z,97990.97
2019-05-01T14:48:37.498Z,97949.99
2019-05-01T14:51:07.247Z,97993.69
2019-05-01T14:53:36.983Z,97996.09
2019-05-01T14:56:06.739Z,97991.48
2019-05-01T14:58:36.529Z,97989.63
2019-05-01T15:01:06.821Z,97995.76
2019-05-01T15:03:36.625Z,97992.81
2019-05-01T15:06:06.718Z,97996.29
2019-05-01T15:08:37.136Z,97988.27
2019-05-01T15:11:07.767Z,97992.62
2019-05-01T15:14:05.610Z,97982.53
2019-05-01T15:17:09.525Z,97986.52
2019-05-01T15:19:45.267Z,97982.70
2019-05-01T15:22:14.945Z,97986.72
2019-05-01T15:24:45.053Z,97984.03
2019-05-01T15:27:14.895Z,97983.50
2019-05-01T15:29:44.751Z,97994.39
2019-05-01T15:32:14.646Z,97992.54
2019-05-01T15:34:44.649Z,97991.23
2019-05-01T15:37:15.095Z,97993.79
2019-05-01T15:40:01.985Z,97993.38
2019-05-01T15:42:40.119Z,97995.11
2019-05-01T15:45:10.334Z,97999.46
2019-05-01T15:47:40.542Z,97999.54
2019-05-01T15:50:10.933Z,98004.31
2019-05-01T15:52:40.902Z,98002.28
2019-05-01T15:55:12.041Z,98004.09
2019-05-01T15:57:42.390Z,98004.05
2019-05-01T16:00:15.610Z,98007.82
2019-05-01T16:02:46.344Z,98011.83
2019-05-01T16:05:18.284Z,98008.75
2019-05-01T16:07:48.436Z,98016.80
2019-05-01T16:10:23.406Z,98020.36
2019-05-01T16:12:58.129Z,98020.94
2019-05-01T16:15:31.543Z,98023.14
2019-05-01T16:18:02.364Z,98022.88
2019-05-01T16:20:32.042Z,98028.34
2019-05-01T16:23:02.548Z,98027.78
2019-05-01T16:25:32.926Z,98033.83
2019-05-01T16:28:02.890Z,98027.23
2019-05-01T16:30:33.015Z,98025.53
2019-05-01T16:33:03.022Z,98032.66
2019-05-01T16:35:32.899Z,98028.26
2019-05-01T16:38:05.129Z,98031.36
2019-05-01T16:40:45.531Z,98031.25
2019-05-01T16:43:15.580Z,98032.91
2019-05-01T16:45:59.623Z,98025.53
2019-05-01T16:48:28.631Z,98036.14
2019-05-01T16:50:58.632Z,98028.52
2019-05-01T16:53:29.131Z,98041.03
2019-05-01T16:55:58.962Z,98049.48
2019-05-01T16:58:29.403Z,98046.79
2019-05-01T17:01:05.317Z,98043.73
2019-05-01T17:03:54.034Z,98050.81
2019-05-01T17:06:45.825Z,98053.23
2019-05-01T17:09:34.465Z,98048.07
2019-05-01T17:12:05.644Z,98055.39
2019-05-01T17:14:36.762Z,98053.77
2019-05-01T17:17:08.737Z,98056.95
2019-05-01T17:19:39.112Z,98061.84
2019-05-01T17:22:14.276Z,98060.14
2019-05-01T17:24:42.426Z,98062.78
2019-05-01T17:27:12.754Z,98061.41
2019-05-01T17:29:42.595Z,98067.66
2019-05-01T17:32:14.328Z,98074.60
2019-05-01T17:34:44.578Z,98069.59
2019-05-01T17:37:14.822Z,98073.95
2019-05-01T17:39:44.486Z,98077.48
2019-05-01T17:42:14.273Z,98072.39
2019-05-01T17:44:44.572Z,98077.83
2019-05-01T17:47:17.915Z,98077.97
2019-05-01T17:49:46.398Z,97992.54
2019-05-01T17:52:16.752Z,98082.81
2019-05-01T17:54:46.629Z,98082.75
2019-05-01T17:57:16.663Z,98080.82
2019-05-01T17:59:48.198Z,98095.00
2019-05-01T18:02:25.968Z,98096.24
2019-05-01T18:05:18.150Z,98101.52
2019-05-01T18:07:48.036Z,98103.36
2019-05-01T18:10:17.990Z,98113.23
2019-05-01T18:12:48.190Z,98111.56
2019-05-01T18:15:18.116Z,98116.71
2019-05-01T18:17:47.971Z,98123.09
2019-05-01T18:20:18.152Z,98122.42
2019-05-01T18:23:12.362Z,98119.89
2019-05-01T18:25:55.535Z,98127.06
2019-05-01T18:28:53.320Z,98128.88
2019-05-01T18:31:27.979Z,98136.22
2019-05-01T18:34:02.574Z,98136.75
2019-05-01T18:36:35.830Z,98149.09
2019-05-01T18:39:17.269Z,98152.41
2019-05-01T18:41:53.587Z,98149.16
2019-05-01T18:44:23.443Z,98159.22
2019-05-01T18:46:53.520Z,98158.84
2019-05-01T18:49:23.512Z,98162.28
2019-05-01T18:51:53.878Z,98170.69
2019-05-01T18:54:25.035Z,98174.80
2019-05-01T18:56:54.871Z,98174.83
2019-05-01T18:59:25.299Z,98170.55
2019-05-01T19:01:56.494Z,98172.84
2019-05-01T19:04:26.648Z,98185.39
2019-05-01T19:06:57.468Z,98186.77
2019-05-01T19:09:30.046Z,98184.98
2019-05-01T19:12:00.251Z,98190.58
2019-05-01T19:14:30.834Z,98191.97
2019-05-01T19:17:00.980Z,98191.16
2019-05-01T19:19:31.516Z,98195.16
2019-05-01T19:22:02.007Z,98199.04
2019-05-01T19:24:37.349Z,98197.91
2019-05-01T19:27:04.564Z,98207.33
2019-05-01T19:29:34.761Z,98198.95
2019-05-01T19:32:06.586Z,98200.92
2019-05-01T19:34:36.639Z,98208.39
2019-05-01T19:37:06.666Z,98214.09
2019-05-01T19:39:43.708Z,98212.92
2019-05-01T19:42:10.809Z,98220.03
2019-05-01T19:44:41.637Z,98223.03
2019-05-01T19:47:12.600Z,98223.03
2019-05-01T19:49:45.619Z,98227.98
2019-05-01T19:52:15.626Z,98232.18
2019-05-01T19:54:45.379Z,98229.62
2019-05-01T19:57:16.258Z,98231.02
2019-05-01T19:59:46.238Z,98236.80
2019-05-01T20:02:17.271Z,98233.53
2019-05-01T20:04:50.557Z,98238.47
2019-05-01T20:07:21.619Z,98241.97
2019-05-01T20:09:56.962Z,98257.05
2019-05-01T20:12:23.578Z,98180.59
2019-05-01T20:14:53.715Z,98238.21
2019-05-01T20:17:23.785Z,98245.94
2019-05-01T20:19:53.691Z,98248.09
2019-05-01T20:22:24.394Z,98250.66
2019-05-01T20:24:54.341Z,98188.75
2019-05-01T20:27:27.634Z,98247.49
2019-05-01T20:29:57.531Z,98258.75
2019-05-01T20:32:29.352Z,98252.36
2019-05-01T20:34:59.648Z,98252.73
2019-05-01T20:37:29.359Z,98262.34
2019-05-01T20:40:10.372Z,98270.63
2019-05-01T20:42:30.807Z,98272.74
2019-05-01T20:45:05.317Z,98274.34
2019-05-01T20:47:35.314Z,98276.89
2019-05-01T20:50:05.674Z,98282.48
2019-05-01T20:52:35.762Z,98280.47
2019-05-01T20:55:07.046Z,98281.42
2019-05-01T20:57:39.054Z,98286.00
2019-05-01T21:00:16.662Z,98281.33
2019-05-01T21:02:44.654Z,98280.43
2019-05-01T21:05:39.261Z,98284.42
2019-05-01T21:08:28.991Z,98228.45
2019-05-01T21:11:05.961Z,98279.39
2019-05-01T21:13:36.197Z,98277.59
2019-05-01T21:16:06.299Z,98278.25
2019-05-01T21:18:36.324Z,98282.75
2019-05-01T21:21:06.392Z,98290.36
2019-05-01T21:23:36.590Z,98279.25
2019-05-01T21:26:06.410Z,98285.80
2019-05-01T21:28:36.767Z,98285.33
2019-05-01T21:31:06.558Z,98282.55
2019-05-01T21:33:36.402Z,98293.25
2019-05-01T21:36:08.604Z,98286.31
2019-05-01T21:38:39.703Z,98284.90
2019-05-01T21:41:09.466Z,98288.36
2019-05-01T21:43:39.581Z,98288.82
2019-05-01T21:46:09.557Z,98286.34
2019-05-01T21:48:39.767Z,98291.65
2019-05-01T21:51:09.605Z,98291.38
2019-05-01T21:53:42.673Z,98287.72
2019-05-01T21:56:11.922Z,98291.95
2019-05-01T21:58:41.647Z,98289.32
2019-05-01T22:01:12.012Z,98296.75
2019-05-01T22:03:42.570Z,98297.61
2019-05-01T22:06:15.294Z,98296.84
2019-05-01T22:08:45.093Z,98300.52
2019-05-01T22:11:14.843Z,98299.18
2019-05-01T22:13:44.610Z,98241.02
2019-05-01T22:16:22.356Z,98297.80
2019-05-01T22:19:14.893Z,98302.47
2019-05-01T22:22:12.618Z,98295.41
2019-05-01T22:25:01.259Z,98302.39
2019-05-01T22:27:37.849Z,98294.35
2019-05-01T22:30:37.441Z,98296.33
2019-05-01T22:33:07.490Z,98292.39
2019-05-01T22:35:40.876Z,98299.68
2019-05-01T22:38:10.803Z,98294.19
2019-05-01T22:41:07.154Z,98295.35
2019-05-01T22:43:37.356Z,98289.53
2019-05-01T22:46:09.908Z,98281.91
2019-05-01T22:48:40.127Z,98279.98
2019-05-01T22:51:22.351Z,98280.00
2019-05-01T22:53:57.043Z,98279.94
2019-05-01T22:56:27.322Z,98274.60
2019-05-01T22:58:57.222Z,98274.66
2019-05-01T23:01:27.643Z,98254.05
2019-05-01T23:04:12.021Z,98280.27
2019-05-01T23:06:41.771Z,98284.39
2019-05-01T23:09:14.196Z,98277.83
2019-05-01T23:11:45.878Z,98280.20
2019-05-01T23:14:17.835Z,98269.22
2019-05-01T23:16:58.652Z,98275.34
2019-05-01T23:19:27.755Z,98269.88
2019-05-01T23:21:58.337Z,98267.73
2019-05-01T23:24:28.435Z,98277.31
2019-05-01T23:26:58.606Z,98273.02
2019-05-01T23:29:28.261Z,98267.92
2019-05-01T23:31:58.217Z,98269.38
2019-05-01T23:34:28.020Z,98266.85
2019-05-01T23:36:57.756Z,98268.45
2019-05-01T23:39:27.889Z,98273.64
2019-05-01T23:41:57.666Z,98270.48
2019-05-01T23:44:27.825Z,98269.86
2019-05-01T23:46:57.803Z,98276.24
2019-05-01T23:49:27.590Z,98270.75
2019-05-01T23:51:58.525Z,98269.58
2019-05-01T23:54:28.895Z,98266.47
2019-05-01T23:56:59.329Z,98273.45
2019-05-01T23:59:29.042Z,98275.34
